createdAt,value
2024-04-30T00:04:10.787Z,81.86
2024-04-30T00:14:18.913Z,80.96
2024-04-30T00:24:25.900Z,82.12
2024-04-30T00:34:33.174Z,86.79
2024-04-30T00:44:40.334Z,85.97
2024-04-30T00:54:47.711Z,85.02
2024-04-30T01:04:55.975Z,85.03
2024-04-30T01:15:02.493Z,85.02
2024-04-30T01:25:09.671Z,85.29
2024-04-30T01:35:16.624Z,85.68
2024-04-30T01:45:23.578Z,85.59
2024-04-30T01:55:31.169Z,86.82
2024-04-30T02:05:39.041Z,87.26
2024-04-30T02:15:48.440Z,88.78
2024-04-30T02:25:55.102Z,90.05
2024-04-30T02:36:02.316Z,89.58
2024-04-30T02:46:08.941Z,90.12
2024-04-30T02:56:16.390Z,89.81
2024-04-30T03:06:23.627Z,89.38
2024-04-30T03:16:31.237Z,87.9
2024-04-30T03:26:38.660Z,85.38
2024-04-30T03:36:45.867Z,84.02
2024-04-30T03:46:53.586Z,84.22
2024-04-30T03:57:00.756Z,82.96
2024-04-30T04:07:07.777Z,82.6
2024-04-30T04:17:15.511Z,82.58
2024-04-30T04:27:23.220Z,83.27
2024-04-30T04:37:30.747Z,82.32
2024-04-30T04:47:38.385Z,83.34
2024-04-30T04:57:46.271Z,82.59
2024-04-30T05:07:53.227Z,82.25
2024-04-30T05:18:00.249Z,81.3
2024-04-30T05:28:08.239Z,78.73
2024-04-30T05:38:15.582Z,78.18
2024-04-30T05:48:22.820Z,76.16
2024-04-30T05:58:29.849Z,76.22
2024-04-30T06:08:41.812Z,75.64
2024-04-30T06:18:49.326Z,74.98
2024-04-30T06:28:56.888Z,74.71
2024-04-30T06:39:04.389Z,74.56
2024-04-30T06:49:11.927Z,71.27
2024-04-30T06:59:19.637Z,68.72
2024-04-30T07:09:26.995Z,65.66
2024-04-30T07:19:35.144Z,65.64
2024-04-30T07:29:43.652Z,62.02
2024-04-30T07:39:50.730Z,62.05
2024-04-30T07:49:58.458Z,65.44
2024-04-30T08:00:11.570Z,65.93
2024-04-30T08:10:25.442Z,65.07
2024-04-30T08:20:33.710Z,65.53
2024-04-30T08:30:41.803Z,65.98
2024-04-30T08:40:51.314Z,67.19
2024-04-30T08:50:59.064Z,65.22
2024-04-30T09:01:10.138Z,65.49
2024-04-30T09:11:18.445Z,64.09
2024-04-30T09:21:27.295Z,64.38
2024-04-30T09:31:35.265Z,59.83
2024-04-30T09:41:43.820Z,65.04
2024-04-30T09:51:51.743Z,57.86
2024-04-30T10:01:59.514Z,56.26
2024-04-30T10:12:12.496Z,55.67
2024-04-30T10:22:24.128Z,56.98
2024-04-30T10:32:32.266Z,52.64
2024-04-30T10:42:40.544Z,51.41
2024-04-30T10:52:48.408Z,54.13
2024-04-30T11:02:55.902Z,51.18
2024-04-30T11:13:03.826Z,51.16
2024-04-30T11:23:12.360Z,46.84
2024-04-30T11:33:20.174Z,41.97
2024-04-30T11:43:29.231Z,39.2
2024-04-30T11:53:39.512Z,38.66
2024-04-30T12:03:47.907Z,37.79
2024-04-30T12:13:57.058Z,35.98
2024-04-30T12:24:05.931Z,22.02
2024-04-30T12:34:14.944Z,19.1
2024-04-30T12:44:23.890Z,17.39
2024-04-30T12:54:32.638Z,17.47
2024-04-30T13:04:41.086Z,15.99
2024-04-30T13:14:49.780Z,16.19
2024-04-30T13:24:57.765Z,15.04
2024-04-30T13:35:06.542Z,19.02
2024-04-30T13:45:14.482Z,17.84
2024-04-30T13:55:22.851Z,16.3
2024-04-30T14:05:34.991Z,17.15
2024-04-30T14:15:46.798Z,16.33
2024-04-30T14:25:55.060Z,14.6
2024-04-30T14:36:03.200Z,15.41
2024-04-30T14:46:11.547Z,15.06
2024-04-30T14:56:20.017Z,15.71
2024-04-30T15:06:27.865Z,18.3
2024-04-30T15:16:36.058Z,17.48
2024-04-30T15:26:43.989Z,16.79
2024-04-30T15:36:51.930Z,17.8
2024-04-30T15:46:59.353Z,18.35
2024-04-30T15:57:07.549Z,20.12
2024-04-30T16:07:15.015Z,22.51
2024-04-30T16:17:23.131Z,22.1
2024-04-30T16:27:31.492Z,26.02
2024-04-30T16:37:37.332Z,35.52
2024-04-30T16:47:43.003Z,41.51
2024-04-30T16:57:50.064Z,43.59
2024-04-30T17:07:57.600Z,46.35
2024-04-30T17:18:05.000Z,49.04
2024-04-30T17:28:12.663Z,52.25
2024-04-30T17:38:19.850Z,53.54
2024-04-30T17:48:27.499Z,48.95
2024-04-30T17:58:35.530Z,50.76
2024-04-30T18:08:42.445Z,51.12
2024-04-30T18:18:50.337Z,55.01
2024-04-30T18:28:57.871Z,56.34
2024-04-30T18:39:05.199Z,60.33
2024-04-30T18:49:13.679Z,59.32
2024-04-30T18:59:21.296Z,57.82
2024-04-30T19:09:28.780Z,59.82
2024-04-30T19:19:36.800Z,61.72
2024-04-30T19:29:44.309Z,61.68
2024-04-30T19:39:52.035Z,62.04
2024-04-30T19:49:59.865Z,61.91
2024-04-30T20:00:07.547Z,62.88
2024-04-30T20:10:14.683Z,59.59
2024-04-30T20:20:21.969Z,62.11
2024-04-30T20:30:28.812Z,62.02
2024-04-30T20:40:36.885Z,59.43
2024-04-30T20:50:44.426Z,60.08
2024-04-30T21:00:53.236Z,61.11
2024-04-30T21:11:02.076Z,60.12
2024-04-30T21:21:09.839Z,62.79
2024-04-30T21:31:17.250Z,56.96
2024-04-30T21:41:24.466Z,57.8
2024-04-30T21:51:31.630Z,57.29
2024-04-30T22:01:39.638Z,59.66
2024-04-30T22:11:47.936Z,56.73
2024-04-30T22:21:55.060Z,57.18
2024-04-30T22:32:02.316Z,59.29
2024-04-30T22:42:09.472Z,57.8
2024-04-30T22:52:16.623Z,60.84
2024-04-30T23:02:24.026Z,59.66
2024-04-30T23:12:31.085Z,63.07
2024-04-30T23:22:38.797Z,64.79
2024-04-30T23:32:45.966Z,64.81
2024-04-30T23:42:53.747Z,67.9
2024-04-30T23:53:01.316Z,67.68
